createdAt,value
2023-03-30T00:00:13.578Z,99.99
2023-03-30T00:01:13.567Z,99.99
2023-03-30T00:02:13.576Z,99.99
2023-03-30T00:03:13.722Z,99.99
2023-03-30T00:04:13.668Z,99.99
2023-03-30T00:05:13.707Z,99.99
2023-03-30T00:06:13.551Z,99.99
2023-03-30T00:07:13.537Z,99.99
2023-03-30T00:08:13.538Z,99.99
2023-03-30T00:09:13.530Z,99.99
2023-03-30T00:10:13.531Z,99.99
2023-03-30T00:11:13.532Z,99.99
2023-03-30T00:12:13.529Z,99.99
2023-03-30T00:13:13.510Z,99.99
2023-03-30T00:14:13.520Z,99.99
2023-03-30T00:15:13.502Z,99.99
2023-03-30T00:16:13.564Z,99.99
2023-03-30T00:17:13.492Z,99.99
2023-03-30T00:18:13.488Z,99.99
2023-03-30T00:19:13.485Z,99.99
2023-03-30T00:20:13.501Z,99.99
2023-03-30T00:21:20.006Z,99.99
2023-03-30T00:22:13.471Z,99.99
2023-03-30T00:23:13.457Z,99.99
2023-03-30T00:24:13.470Z,99.99
2023-03-30T00:25:13.457Z,99.99
2023-03-30T00:26:13.457Z,99.99
2023-03-30T00:27:13.443Z,99.99
2023-03-30T00:28:13.435Z,99.99
2023-03-30T00:29:13.442Z,99.99
2023-03-30T00:30:13.454Z,99.99
2023-03-30T00:31:13.459Z,99.99
2023-03-30T00:32:13.445Z,99.99
2023-03-30T00:33:13.408Z,99.99
2023-03-30T00:34:13.398Z,99.99
2023-03-30T00:35:13.406Z,99.99
2023-03-30T00:36:13.434Z,99.99
2023-03-30T00:37:13.396Z,99.99
2023-03-30T00:38:13.389Z,99.99
2023-03-30T00:39:13.384Z,99.99
2023-03-30T00:40:13.381Z,99.99
2023-03-30T00:41:13.378Z,99.99
2023-03-30T00:42:13.364Z,99.99
2023-03-30T00:43:13.362Z,99.99
2023-03-30T00:44:13.357Z,99.99
2023-03-30T00:45:13.343Z,99.99
2023-03-30T00:46:13.379Z,99.99
2023-03-30T00:47:13.359Z,99.99
2023-03-30T00:48:13.325Z,99.99
2023-03-30T00:49:13.326Z,99.99
2023-03-30T00:50:13.329Z,99.99
2023-03-30T00:51:13.304Z,99.99
2023-03-30T00:52:13.311Z,99.99
2023-03-30T00:53:13.307Z,99.99
2023-03-30T00:54:13.296Z,99.99
2023-03-30T00:55:13.284Z,99.99
2023-03-30T00:56:13.293Z,99.99
2023-03-30T00:57:13.324Z,99.99
2023-03-30T00:58:13.274Z,99.99
2023-03-30T00:59:13.273Z,99.99
2023-03-30T01:00:13.266Z,99.99
2023-03-30T01:01:13.287Z,99.99
2023-03-30T01:02:13.322Z,99.99
2023-03-30T01:03:13.408Z,99.99
2023-03-30T01:04:13.277Z,99.99
2023-03-30T01:05:13.247Z,99.99
2023-03-30T01:06:13.249Z,99.99
2023-03-30T01:07:13.237Z,99.99
2023-03-30T01:08:13.225Z,99.99
2023-03-30T01:09:13.225Z,99.99
2023-03-30T01:10:13.217Z,99.99
2023-03-30T01:11:13.206Z,99.99
2023-03-30T01:12:13.208Z,99.99
2023-03-30T01:13:13.198Z,99.99
2023-03-30T01:14:13.197Z,99.99
2023-03-30T01:15:13.205Z,99.99
2023-03-30T01:16:13.316Z,99.99
2023-03-30T01:17:13.186Z,99.99
2023-03-30T01:18:13.182Z,99.99
2023-03-30T01:19:13.179Z,99.99
2023-03-30T01:20:13.196Z,99.99
2023-03-30T01:21:13.161Z,99.99
2023-03-30T01:22:13.148Z,99.99
2023-03-30T01:23:13.147Z,99.99
2023-03-30T01:24:13.149Z,99.99
2023-03-30T01:25:13.141Z,99.99
2023-03-30T01:26:13.132Z,99.99
2023-03-30T01:27:35.030Z,99.99
2023-03-30T01:28:13.121Z,99.99
2023-03-30T01:29:13.114Z,99.99
2023-03-30T01:30:13.118Z,99.99
2023-03-30T01:31:13.205Z,99.99
2023-03-30T01:32:13.104Z,99.99
2023-03-30T01:33:13.112Z,99.99
2023-03-30T01:34:13.104Z,99.99
2023-03-30T01:35:13.134Z,99.99
2023-03-30T01:36:13.142Z,99.99
2023-03-30T01:37:13.096Z,99.99
2023-03-30T01:38:13.099Z,99.99
2023-03-30T01:39:13.077Z,99.99
2023-03-30T01:40:13.077Z,99.99
2023-03-30T01:41:13.050Z,99.99
2023-03-30T01:42:13.059Z,99.99
2023-03-30T01:43:13.052Z,99.99
2023-03-30T01:44:13.044Z,99.99
2023-03-30T01:45:13.040Z,99.99
2023-03-30T01:46:13.043Z,99.99
2023-03-30T01:47:13.024Z,99.99
2023-03-30T01:48:13.038Z,99.99
2023-03-30T01:49:13.036Z,99.99
2023-03-30T01:50:13.022Z,99.99
2023-03-30T01:51:13.014Z,99.99
2023-03-30T01:52:13.006Z,99.99
2023-03-30T01:53:13.012Z,99.99
2023-03-30T01:54:13.009Z,99.99
2023-03-30T01:55:12.991Z,99.99
2023-03-30T01:56:12.992Z,99.99
2023-03-30T01:57:13.007Z,99.99
2023-03-30T01:58:12.988Z,99.99
2023-03-30T01:59:12.968Z,99.99
2023-03-30T02:00:13.005Z,99.99
2023-03-30T02:01:12.961Z,99.99
2023-03-30T02:02:12.985Z,99.99
2023-03-30T02:03:13.067Z,99.99
2023-03-30T02:04:12.950Z,99.99
2023-03-30T02:05:12.948Z,99.99
2023-03-30T02:06:12.931Z,99.99
2023-03-30T02:07:12.931Z,99.99
2023-03-30T02:08:12.930Z,99.99
2023-03-30T02:09:12.931Z,99.99
2023-03-30T02:10:12.918Z,99.99
2023-03-30T02:11:12.910Z,99.99
2023-03-30T02:12:12.909Z,99.99
2023-03-30T02:13:12.902Z,99.99
2023-03-30T02:14:12.924Z,99.99
2023-03-30T02:15:12.899Z,99.99
2023-03-30T02:16:12.932Z,99.99
2023-03-30T02:17:12.882Z,99.99
2023-03-30T02:18:12.868Z,99.99
2023-03-30T02:19:12.873Z,99.99
2023-03-30T02:20:12.851Z,99.99
2023-03-30T02:21:12.854Z,99.99
2023-03-30T02:22:12.887Z,99.99
2023-03-30T02:23:13.966Z,99.99
2023-03-30T02:24:12.842Z,99.99
2023-03-30T02:25:12.836Z,99.99
2023-03-30T02:26:12.830Z,99.99
2023-03-30T02:27:12.837Z,99.99
2023-03-30T02:28:12.832Z,99.99
2023-03-30T02:29:12.818Z,99.99
2023-03-30T02:30:12.819Z,99.99
2023-03-30T02:31:12.838Z,99.99
2023-03-30T02:32:12.807Z,99.99
2023-03-30T02:33:12.823Z,99.99
2023-03-30T02:34:12.801Z,99.99
2023-03-30T02:35:12.789Z,99.99
2023-03-30T02:36:12.830Z,99.99
2023-03-30T02:37:12.771Z,99.99
2023-03-30T02:38:12.786Z,99.99
2023-03-30T02:39:14.542Z,99.99
2023-03-30T02:40:12.818Z,99.99
2023-03-30T02:41:12.760Z,99.99
2023-03-30T02:42:12.777Z,99.99
2023-03-30T02:43:12.762Z,99.99
2023-03-30T02:44:12.745Z,99.99
2023-03-30T02:45:12.738Z,99.99
2023-03-30T02:46:12.756Z,99.99
2023-03-30T02:47:12.744Z,99.99
2023-03-30T02:48:12.723Z,99.99
2023-03-30T02:49:12.718Z,99.99
2023-03-30T02:50:12.737Z,99.99
2023-03-30T02:51:12.720Z,99.99
2023-03-30T02:52:12.708Z,99.99
2023-03-30T02:53:12.701Z,99.99
2023-03-30T02:54:12.706Z,99.99
2023-03-30T02:55:12.687Z,99.99
2023-03-30T02:56:12.700Z,99.99
2023-03-30T02:57:12.753Z,99.99
2023-03-30T02:58:12.706Z,99.99
2023-03-30T02:59:12.669Z,99.99
2023-03-30T03:00:12.670Z,99.99
2023-03-30T03:01:12.750Z,99.99
2023-03-30T03:02:12.692Z,99.99
2023-03-30T03:03:12.726Z,99.99
2023-03-30T03:04:12.659Z,99.99
2023-03-30T03:05:12.647Z,99.99
2023-03-30T03:06:12.639Z,99.99
2023-03-30T03:07:12.640Z,99.99
2023-03-30T03:08:12.629Z,99.99
2023-03-30T03:09:12.632Z,99.99
2023-03-30T03:10:12.637Z,99.99
2023-03-30T03:11:12.618Z,99.99
2023-03-30T03:12:12.622Z,99.99
2023-03-30T03:13:12.601Z,99.99
2023-03-30T03:14:12.600Z,99.99
2023-03-30T03:15:12.598Z,99.99
2023-03-30T03:16:12.592Z,99.99
2023-03-30T03:17:12.614Z,99.99
2023-03-30T03:18:12.585Z,99.99
2023-03-30T03:19:12.576Z,99.99
2023-03-30T03:20:12.567Z,99.99
2023-03-30T03:21:12.568Z,99.99
2023-03-30T03:22:33.574Z,99.99
2023-03-30T03:23:12.559Z,99.99
2023-03-30T03:24:12.550Z,99.99
2023-03-30T03:25:12.572Z,99.99
2023-03-30T03:26:12.542Z,99.99
2023-03-30T03:27:12.532Z,99.99
2023-03-30T03:28:12.533Z,99.99
2023-03-30T03:29:12.515Z,99.99
2023-03-30T03:30:12.532Z,99.99
2023-03-30T03:31:12.641Z,99.99
2023-03-30T03:32:12.513Z,99.99
2023-03-30T03:33:12.502Z,99.99
2023-03-30T03:34:12.520Z,99.99
2023-03-30T03:35:15.134Z,99.99
2023-03-30T03:36:12.594Z,99.99
2023-03-30T03:37:12.482Z,99.99
2023-03-30T03:38:12.485Z,99.99
2023-03-30T03:39:12.477Z,99.99
2023-03-30T03:40:12.500Z,99.99
2023-03-30T03:41:12.474Z,99.99
2023-03-30T03:42:12.481Z,99.99
2023-03-30T03:43:12.461Z,99.99
2023-03-30T03:44:12.440Z,99.99
2023-03-30T03:45:12.450Z,99.99
2023-03-30T03:46:12.481Z,99.99
2023-03-30T03:47:14.564Z,99.99
2023-03-30T03:48:12.426Z,99.99
2023-03-30T03:49:12.429Z,99.99
2023-03-30T03:50:12.417Z,99.99
2023-03-30T03:51:12.412Z,99.99
2023-03-30T03:52:12.404Z,99.99
2023-03-30T03:53:12.412Z,99.99
2023-03-30T03:54:12.385Z,99.99
2023-03-30T03:55:12.392Z,99.99
2023-03-30T03:56:12.414Z,99.99
2023-03-30T03:57:12.442Z,99.99
2023-03-30T03:58:12.375Z,99.99
2023-03-30T03:59:12.374Z,99.99
2023-03-30T04:00:12.401Z,99.99
2023-03-30T04:01:12.416Z,99.99
2023-03-30T04:02:12.393Z,99.99
2023-03-30T04:03:12.485Z,99.99
2023-03-30T04:04:12.367Z,99.99
2023-03-30T04:05:12.345Z,99.99
2023-03-30T04:06:12.344Z,99.99
2023-03-30T04:07:12.338Z,99.99
2023-03-30T04:08:12.328Z,99.99
2023-03-30T04:09:12.332Z,99.99
2023-03-30T04:10:12.333Z,99.99
2023-03-30T04:11:12.362Z,99.99
2023-03-30T04:12:12.306Z,99.99
2023-03-30T04:13:12.320Z,99.99
2023-03-30T04:14:12.304Z,99.99
2023-03-30T04:15:12.293Z,99.99
2023-03-30T04:16:12.330Z,99.99
2023-03-30T04:17:12.289Z,99.99
2023-03-30T04:18:12.307Z,99.99
2023-03-30T04:19:12.278Z,99.99
2023-03-30T04:20:12.322Z,99.99
2023-03-30T04:21:12.271Z,99.99
2023-03-30T04:22:12.259Z,99.99
2023-03-30T04:23:12.250Z,99.99
2023-03-30T04:24:12.259Z,99.99
2023-03-30T04:25:12.246Z,99.99
2023-03-30T04:26:12.236Z,99.99
2023-03-30T04:27:12.256Z,99.99
2023-03-30T04:28:12.234Z,99.99
2023-03-30T04:29:12.227Z,99.99
2023-03-30T04:30:12.317Z,99.99
2023-03-30T04:31:12.224Z,99.99
2023-03-30T04:32:13.248Z,99.99
2023-03-30T04:33:33.240Z,99.99
2023-03-30T04:34:12.195Z,99.99
2023-03-30T04:35:12.191Z,99.99
2023-03-30T04:36:12.226Z,99.99
2023-03-30T04:37:12.187Z,99.99
2023-03-30T04:38:12.225Z,99.99
2023-03-30T04:39:12.209Z,99.99
2023-03-30T04:40:12.170Z,99.99
2023-03-30T04:41:12.167Z,99.99
2023-03-30T04:42:12.161Z,99.99
2023-03-30T04:43:12.165Z,99.99
2023-03-30T04:44:13.178Z,99.99
2023-03-30T04:45:12.188Z,99.99
2023-03-30T04:46:12.211Z,99.99
2023-03-30T04:47:12.148Z,99.99
2023-03-30T04:48:12.135Z,99.99
2023-03-30T04:49:12.124Z,99.99
2023-03-30T04:50:12.114Z,99.99
2023-03-30T04:51:12.119Z,99.99
2023-03-30T04:52:12.105Z,99.99
2023-03-30T04:53:12.113Z,99.99
2023-03-30T04:54:12.106Z,99.99
2023-03-30T04:55:12.118Z,99.99
2023-03-30T04:56:12.097Z,99.99
2023-03-30T04:57:12.118Z,99.99
2023-03-30T04:58:12.079Z,99.99
2023-03-30T04:59:12.076Z,99.99
2023-03-30T05:00:12.069Z,99.99
2023-03-30T05:01:13.145Z,99.99
2023-03-30T05:02:12.118Z,99.99
2023-03-30T05:03:12.202Z,99.99
2023-03-30T05:04:12.082Z,99.99
2023-03-30T05:05:12.045Z,99.99
2023-03-30T05:06:12.034Z,99.99
2023-03-30T05:07:12.043Z,99.99
2023-03-30T05:08:12.029Z,99.99
2023-03-30T05:09:12.025Z,99.99
2023-03-30T05:10:12.020Z,99.99
2023-03-30T05:11:12.014Z,99.99
2023-03-30T05:12:12.011Z,99.99
2023-03-30T05:13:12.008Z,99.99
2023-03-30T05:14:11.998Z,99.99
2023-03-30T05:15:11.994Z,99.99
2023-03-30T05:16:11.994Z,99.99
2023-03-30T05:17:12.017Z,99.99
2023-03-30T05:18:12.043Z,99.99
2023-03-30T05:19:11.977Z,99.99
2023-03-30T05:20:11.974Z,99.99
2023-03-30T05:21:11.966Z,99.99
2023-03-30T05:22:11.949Z,99.99
2023-03-30T05:23:11.944Z,99.99
2023-03-30T05:24:11.956Z,99.99
2023-03-30T05:25:11.947Z,99.99
2023-03-30T05:26:11.993Z,99.99
2023-03-30T05:27:11.952Z,99.99
2023-03-30T05:28:11.946Z,99.99
2023-03-30T05:29:11.918Z,99.99
2023-03-30T05:30:11.910Z,99.99
2023-03-30T05:31:11.969Z,99.99
2023-03-30T05:32:11.914Z,99.99
2023-03-30T05:33:11.895Z,99.99
2023-03-30T05:34:11.899Z,99.99
2023-03-30T05:35:11.946Z,99.99
2023-03-30T05:36:11.905Z,99.99
2023-03-30T05:37:11.897Z,99.99
2023-03-30T05:38:11.879Z,99.99
2023-03-30T05:39:11.875Z,99.99
2023-03-30T05:40:11.874Z,99.99
2023-03-30T05:41:11.877Z,99.99
2023-03-30T05:42:11.848Z,99.99
2023-03-30T05:43:11.852Z,99.99
2023-03-30T05:44:32.857Z,99.99
2023-03-30T05:45:11.853Z,99.99
2023-03-30T05:46:11.874Z,99.99
2023-03-30T05:47:11.843Z,99.99
2023-03-30T05:48:11.832Z,99.99
2023-03-30T05:49:11.818Z,99.99
2023-03-30T05:50:11.819Z,99.99
2023-03-30T05:51:11.816Z,99.99
2023-03-30T05:52:11.860Z,99.99
2023-03-30T05:53:11.796Z,99.99
2023-03-30T05:54:11.805Z,99.99
2023-03-30T05:55:11.809Z,99.99
2023-03-30T05:56:11.788Z,99.99
2023-03-30T05:57:11.807Z,99.99
2023-03-30T05:58:11.806Z,99.99
2023-03-30T05:59:11.766Z,99.99
2023-03-30T06:00:11.766Z,99.99
2023-03-30T06:01:11.758Z,99.99
2023-03-30T06:02:11.761Z,99.99
2023-03-30T06:03:11.785Z,99.99
2023-03-30T06:04:11.809Z,99.99
2023-03-30T06:05:11.739Z,99.99
2023-03-30T06:06:11.735Z,99.99
2023-03-30T06:07:11.727Z,99.99
2023-03-30T06:08:11.721Z,99.99
2023-03-30T06:09:11.737Z,99.99
2023-03-30T06:10:11.706Z,99.99
2023-03-30T06:11:11.704Z,99.99
2023-03-30T06:12:11.712Z,99.99
2023-03-30T06:13:11.696Z,99.99
2023-03-30T06:14:11.693Z,99.99
2023-03-30T06:15:11.698Z,99.99
2023-03-30T06:16:11.736Z,99.99
2023-03-30T06:17:11.673Z,99.99
2023-03-30T06:18:11.720Z,99.99
2023-03-30T06:19:11.668Z,99.99
2023-03-30T06:20:11.687Z,99.99
2023-03-30T06:21:11.655Z,99.99
2023-03-30T06:22:11.651Z,99.99
2023-03-30T06:23:11.650Z,99.99
2023-03-30T06:24:11.649Z,99.99
2023-03-30T06:25:11.645Z,99.99
2023-03-30T06:26:11.642Z,99.99
2023-03-30T06:27:11.683Z,99.99
2023-03-30T06:28:11.624Z,99.99
2023-03-30T06:29:11.622Z,99.99
2023-03-30T06:30:11.615Z,99.99
2023-03-30T06:31:11.606Z,99.99
2023-03-30T06:32:11.630Z,99.99
2023-03-30T06:33:11.641Z,99.99
2023-03-30T06:34:11.596Z,99.99
2023-03-30T06:35:11.589Z,99.99
2023-03-30T06:36:11.628Z,99.99
2023-03-30T06:37:11.566Z,99.99
2023-03-30T06:38:11.571Z,99.99
2023-03-30T06:39:11.595Z,99.99
2023-03-30T06:40:11.562Z,99.99
2023-03-30T06:41:11.558Z,99.99
2023-03-30T06:42:11.563Z,99.99
2023-03-30T06:43:11.541Z,99.99
2023-03-30T06:44:11.546Z,99.99
2023-03-30T06:45:11.543Z,99.99
2023-03-30T06:46:11.545Z,99.99
2023-03-30T06:47:11.522Z,99.99
2023-03-30T06:48:11.556Z,99.99
2023-03-30T06:49:11.550Z,99.99
2023-03-30T06:50:11.504Z,99.99
2023-03-30T06:51:11.506Z,99.99
2023-03-30T06:52:11.516Z,99.99
2023-03-30T06:53:11.489Z,99.99
2023-03-30T06:54:11.504Z,99.99
2023-03-30T06:55:11.495Z,99.99
2023-03-30T06:56:11.486Z,99.99
2023-03-30T06:57:11.494Z,99.99
2023-03-30T06:58:11.467Z,99.99
2023-03-30T06:59:11.474Z,99.99
2023-03-30T07:00:11.465Z,99.99
2023-03-30T07:01:11.562Z,99.99
2023-03-30T07:02:11.451Z,99.99
2023-03-30T07:03:11.475Z,99.99
2023-03-30T07:04:11.457Z,99.99
2023-03-30T07:05:11.448Z,99.99
2023-03-30T07:06:11.436Z,99.99
2023-03-30T07:07:11.425Z,99.99
2023-03-30T07:08:11.429Z,99.99
2023-03-30T07:09:11.430Z,99.99
2023-03-30T07:10:11.411Z,99.99
2023-03-30T07:11:11.420Z,99.99
2023-03-30T07:12:11.419Z,99.99
2023-03-30T07:13:11.398Z,99.99
2023-03-30T07:14:11.410Z,99.99
2023-03-30T07:15:11.388Z,99.99
2023-03-30T07:16:11.403Z,99.99
2023-03-30T07:17:11.527Z,99.99
2023-03-30T07:18:11.409Z,99.99
2023-03-30T07:19:11.374Z,99.99
2023-03-30T07:20:11.360Z,99.99
2023-03-30T07:21:11.361Z,99.99
2023-03-30T07:22:11.443Z,99.99
2023-03-30T07:23:32.467Z,99.99
2023-03-30T07:24:11.340Z,99.99
2023-03-30T07:25:11.339Z,99.99
2023-03-30T07:26:11.337Z,99.99
2023-03-30T07:27:11.334Z,99.99
2023-03-30T07:28:11.322Z,99.99
2023-03-30T07:29:11.325Z,99.99
2023-03-30T07:30:21.267Z,99.99
2023-03-30T07:31:11.372Z,99.99
2023-03-30T07:32:11.347Z,99.99
2023-03-30T07:33:11.302Z,99.99
2023-03-30T07:34:11.294Z,99.99
2023-03-30T07:35:11.296Z,99.99
2023-03-30T07:36:11.323Z,99.99
2023-03-30T07:37:11.277Z,99.99
2023-03-30T07:38:11.289Z,99.99
2023-03-30T07:39:11.322Z,99.99
2023-03-30T07:40:11.297Z,99.99
2023-03-30T07:41:11.260Z,99.99
2023-03-30T07:42:11.252Z,99.99
2023-03-30T07:43:11.270Z,99.99
2023-03-30T07:44:11.264Z,99.99
2023-03-30T07:45:11.808Z,99.99
2023-03-30T07:46:11.248Z,99.99
2023-03-30T07:47:11.245Z,99.99
2023-03-30T07:48:11.265Z,99.99
2023-03-30T07:49:11.219Z,99.99
2023-03-30T07:50:11.223Z,99.99
2023-03-30T07:51:11.221Z,99.99
2023-03-30T07:52:11.203Z,99.99
2023-03-30T07:53:11.241Z,99.99
2023-03-30T07:54:11.201Z,99.99
2023-03-30T07:55:11.200Z,99.99
2023-03-30T07:56:11.196Z,99.99
2023-03-30T07:57:11.205Z,99.99
2023-03-30T07:58:11.185Z,99.99
2023-03-30T07:59:11.180Z,99.99
2023-03-30T08:00:11.170Z,99.99
2023-03-30T08:01:11.180Z,99.99
2023-03-30T08:02:11.168Z,99.99
2023-03-30T08:03:11.316Z,99.99
2023-03-30T08:04:11.289Z,99.99
2023-03-30T08:05:11.299Z,99.99
2023-03-30T08:06:11.150Z,99.99
2023-03-30T08:07:11.153Z,99.99
2023-03-30T08:08:11.137Z,99.99
2023-03-30T08:09:11.127Z,99.99
2023-03-30T08:10:11.135Z,99.99
2023-03-30T08:11:11.171Z,99.99
2023-03-30T08:12:11.135Z,99.99
2023-03-30T08:13:11.109Z,99.99
2023-03-30T08:14:11.109Z,99.99
2023-03-30T08:15:11.111Z,99.99
2023-03-30T08:16:11.157Z,99.99
2023-03-30T08:17:17.787Z,99.99
2023-03-30T08:18:11.164Z,99.99
2023-03-30T08:19:11.081Z,99.99
2023-03-30T08:20:11.100Z,99.99
2023-03-30T08:21:11.081Z,99.99
2023-03-30T08:22:11.079Z,99.99
2023-03-30T08:23:11.078Z,99.99
2023-03-30T08:24:11.073Z,99.99
2023-03-30T08:25:11.052Z,99.99
2023-03-30T08:26:11.052Z,99.99
2023-03-30T08:27:12.159Z,99.99
2023-03-30T08:28:11.050Z,99.99
2023-03-30T08:29:11.042Z,99.99
2023-03-30T08:30:11.031Z,99.99
2023-03-30T08:31:11.077Z,99.99
2023-03-30T08:32:11.034Z,99.99
2023-03-30T08:33:11.060Z,99.99
2023-03-30T08:34:11.025Z,99.99
2023-03-30T08:35:11.015Z,99.99
2023-03-30T08:36:11.006Z,99.99
2023-03-30T08:37:11.041Z,99.99
2023-03-30T08:38:11.002Z,99.99
2023-03-30T08:39:11.018Z,99.99
2023-03-30T08:40:11.019Z,99.99
2023-03-30T08:41:10.989Z,99.99
2023-03-30T08:42:11.823Z,99.99
2023-03-30T08:43:17.838Z,99.99
2023-03-30T08:44:10.981Z,99.99
2023-03-30T08:45:10.978Z,99.99
2023-03-30T08:46:11.021Z,99.99
2023-03-30T08:47:10.972Z,99.99
2023-03-30T08:48:11.037Z,99.99
2023-03-30T08:49:10.948Z,99.99
2023-03-30T08:50:10.959Z,99.99
2023-03-30T08:51:10.957Z,99.99
2023-03-30T08:52:10.938Z,99.99
2023-03-30T08:53:10.955Z,99.99
2023-03-30T08:54:10.943Z,99.99
2023-03-30T08:55:12.964Z,99.99
2023-03-30T08:56:10.957Z,99.99
2023-03-30T08:57:10.985Z,99.99
2023-03-30T08:58:10.911Z,99.99
2023-03-30T08:59:10.905Z,99.99
2023-03-30T09:00:10.912Z,99.99
2023-03-30T09:01:10.924Z,99.99
2023-03-30T09:02:10.906Z,99.99
2023-03-30T09:03:10.937Z,99.99
2023-03-30T09:04:10.891Z,99.99
2023-03-30T09:05:10.896Z,99.99
2023-03-30T09:06:10.878Z,99.99
2023-03-30T09:07:10.870Z,99.82
2023-03-30T09:08:10.889Z,99.82
2023-03-30T09:09:10.870Z,99.99
2023-03-30T09:10:10.867Z,99.99
2023-03-30T09:11:10.924Z,99.99
2023-03-30T09:12:10.851Z,99.99
2023-03-30T09:13:10.861Z,99.99
2023-03-30T09:14:10.848Z,99.73
2023-03-30T09:15:10.844Z,99.99
2023-03-30T09:16:10.882Z,99.99
2023-03-30T09:17:10.836Z,99.99
2023-03-30T09:18:10.838Z,99.99
2023-03-30T09:19:10.830Z,99.99
2023-03-30T09:20:10.832Z,99.96
2023-03-30T09:21:10.809Z,99.91
2023-03-30T09:22:10.819Z,99.39
2023-03-30T09:23:10.805Z,99.10
2023-03-30T09:24:10.899Z,99.15
2023-03-30T09:25:10.812Z,99.73
2023-03-30T09:26:10.798Z,99.15
2023-03-30T09:27:10.786Z,98.10
2023-03-30T09:28:10.790Z,98.19
2023-03-30T09:29:10.773Z,98.05
2023-03-30T09:30:10.797Z,98.62
2023-03-30T09:31:10.841Z,98.43
2023-03-30T09:32:10.897Z,98.05
2023-03-30T09:33:10.778Z,98.33
2023-03-30T09:34:12.923Z,97.66
2023-03-30T09:35:10.755Z,98.24
2023-03-30T09:36:10.856Z,97.95
2023-03-30T09:37:10.762Z,98.14
2023-03-30T09:38:10.738Z,97.09
2023-03-30T09:39:10.742Z,97.66
2023-03-30T09:40:10.771Z,97.66
2023-03-30T09:41:10.739Z,97.95
2023-03-30T09:42:10.758Z,96.99
2023-03-30T09:43:10.732Z,97.47
2023-03-30T09:44:10.719Z,97.19
2023-03-30T09:45:10.709Z,96.99
2023-03-30T09:46:10.791Z,96.61
2023-03-30T09:47:10.716Z,97.28
2023-03-30T09:48:10.738Z,97.47
2023-03-30T09:49:10.705Z,97.66
2023-03-30T09:50:10.718Z,96.89
2023-03-30T09:51:10.695Z,97.19
2023-03-30T09:52:10.719Z,97.28
2023-03-30T09:53:10.705Z,97.95
2023-03-30T09:54:10.697Z,96.99
2023-03-30T09:55:10.680Z,96.89
2023-03-30T09:56:10.687Z,95.98
2023-03-30T09:57:10.678Z,95.03
2023-03-30T09:58:10.695Z,94.78
2023-03-30T09:59:10.652Z,93.73
2023-03-30T10:00:10.676Z,93.01
2023-03-30T10:01:10.689Z,91.95
2023-03-30T10:02:10.808Z,91.47
2023-03-30T10:03:10.711Z,91.75
2023-03-30T10:04:11.010Z,90.22
2023-03-30T10:05:10.641Z,90.80
2023-03-30T10:06:10.651Z,90.22
2023-03-30T10:07:18.610Z,90.99
2023-03-30T10:08:10.642Z,91.42
2023-03-30T10:09:10.628Z,94.64
2023-03-30T10:10:10.630Z,99.99
2023-03-30T10:11:10.628Z,99.99
2023-03-30T10:12:10.621Z,99.99
2023-03-30T10:13:10.615Z,99.99
2023-03-30T10:14:10.616Z,99.99
2023-03-30T10:15:10.604Z,99.99
2023-03-30T10:16:10.632Z,99.99
2023-03-30T10:17:10.614Z,99.99
2023-03-30T10:18:10.610Z,99.99
2023-03-30T10:19:10.591Z,99.99
2023-03-30T10:20:14.204Z,99.99
2023-03-30T10:21:10.581Z,99.99
2023-03-30T10:22:10.578Z,99.99
2023-03-30T10:23:10.575Z,99.99
2023-03-30T10:24:10.580Z,99.99
2023-03-30T10:25:10.558Z,99.99
2023-03-30T10:26:10.564Z,99.99
2023-03-30T10:27:10.555Z,99.99
2023-03-30T10:28:10.582Z,99.99
2023-03-30T10:29:10.538Z,99.99
2023-03-30T10:30:10.531Z,99.99
2023-03-30T10:31:10.643Z,99.99
2023-03-30T10:32:10.532Z,99.99
2023-03-30T10:33:10.590Z,99.99
2023-03-30T10:34:10.528Z,99.99
2023-03-30T10:35:10.505Z,99.99
2023-03-30T10:36:10.522Z,99.99
2023-03-30T10:37:10.494Z,99.99
2023-03-30T10:38:10.556Z,99.99
2023-03-30T10:39:10.487Z,99.99
2023-03-30T10:40:10.476Z,99.99
2023-03-30T10:41:10.471Z,99.99
2023-03-30T10:42:10.486Z,99.99
2023-03-30T10:43:10.464Z,99.99
2023-03-30T10:44:10.487Z,99.99
2023-03-30T10:45:10.473Z,99.99
2023-03-30T10:46:18.761Z,99.99
2023-03-30T10:47:10.537Z,99.99
2023-03-30T10:48:10.513Z,99.99
2023-03-30T10:49:10.430Z,99.99
2023-03-30T10:50:10.429Z,99.99
2023-03-30T10:51:10.414Z,99.99
2023-03-30T10:52:12.382Z,99.99
2023-03-30T10:53:10.415Z,99.99
2023-03-30T10:54:10.409Z,99.99
2023-03-30T10:55:10.388Z,99.99
2023-03-30T10:56:10.386Z,99.99
2023-03-30T10:57:10.437Z,99.99
2023-03-30T10:58:10.380Z,99.99
2023-03-30T10:59:10.369Z,99.99
2023-03-30T11:00:10.481Z,99.99
2023-03-30T11:01:10.408Z,99.99
2023-03-30T11:02:10.348Z,99.99
2023-03-30T11:03:10.485Z,99.99
2023-03-30T11:04:22.463Z,99.99
2023-03-30T11:05:10.330Z,99.99
2023-03-30T11:06:10.328Z,99.99
2023-03-30T11:07:10.329Z,99.99
2023-03-30T11:08:10.323Z,99.99
2023-03-30T11:09:11.305Z,99.99
2023-03-30T11:10:10.312Z,99.99
2023-03-30T11:11:10.304Z,99.99
2023-03-30T11:12:10.305Z,99.99
2023-03-30T11:13:10.293Z,99.99
2023-03-30T11:14:10.324Z,99.99
2023-03-30T11:15:10.283Z,99.99
2023-03-30T11:16:10.315Z,99.99
2023-03-30T11:17:10.354Z,99.99
2023-03-30T11:18:10.281Z,99.99
2023-03-30T11:19:10.321Z,99.99
2023-03-30T11:20:10.267Z,99.99
2023-03-30T11:21:10.263Z,99.99
2023-03-30T11:22:10.255Z,99.99
2023-03-30T11:23:10.249Z,99.99
2023-03-30T11:24:10.249Z,99.99
2023-03-30T11:25:10.249Z,99.99
2023-03-30T11:26:10.260Z,99.99
2023-03-30T11:27:10.221Z,99.99
2023-03-30T11:28:10.239Z,99.99
2023-03-30T11:29:10.241Z,99.99
2023-03-30T11:30:10.222Z,99.99
2023-03-30T11:31:10.218Z,99.99
2023-03-30T11:32:10.402Z,99.99
2023-03-30T11:33:10.286Z,99.99
2023-03-30T11:34:10.203Z,99.99
2023-03-30T11:35:10.205Z,99.99
2023-03-30T11:36:10.246Z,99.99
2023-03-30T11:37:10.202Z,99.99
2023-03-30T11:38:10.202Z,99.99
2023-03-30T11:39:18.448Z,99.99
2023-03-30T11:40:10.186Z,99.99
2023-03-30T11:41:10.176Z,99.99
2023-03-30T11:42:10.176Z,99.99
2023-03-30T11:43:10.175Z,99.99
2023-03-30T11:44:10.161Z,99.99
2023-03-30T11:45:10.156Z,99.99
2023-03-30T11:46:10.496Z,99.99
2023-03-30T11:47:10.151Z,99.99
2023-03-30T11:48:10.184Z,99.99
2023-03-30T11:49:10.172Z,99.99
2023-03-30T11:50:10.149Z,99.99
2023-03-30T11:51:10.139Z,99.99
2023-03-30T11:52:10.133Z,99.99
2023-03-30T11:53:10.119Z,99.99
2023-03-30T11:54:10.119Z,99.99
2023-03-30T11:55:10.124Z,99.99
2023-03-30T11:56:10.110Z,99.99
2023-03-30T11:57:10.156Z,99.99
2023-03-30T11:58:10.213Z,99.99
2023-03-30T11:59:10.095Z,99.99
2023-03-30T12:00:10.104Z,99.99
2023-03-30T12:01:10.080Z,99.99
2023-03-30T12:02:10.112Z,99.99
2023-03-30T12:03:10.227Z,99.99
2023-03-30T12:04:10.253Z,99.99
2023-03-30T12:05:10.120Z,99.99
2023-03-30T12:06:10.069Z,99.99
2023-03-30T12:07:10.060Z,99.99
2023-03-30T12:08:10.053Z,99.99
2023-03-30T12:09:10.047Z,99.99
2023-03-30T12:10:10.043Z,99.99
2023-03-30T12:11:10.040Z,99.99
2023-03-30T12:12:10.030Z,99.99
2023-03-30T12:13:10.022Z,99.99
2023-03-30T12:14:10.034Z,99.99
2023-03-30T12:15:10.015Z,99.99
2023-03-30T12:16:10.068Z,99.99
2023-03-30T12:17:10.017Z,99.99
2023-03-30T12:18:10.028Z,99.99
2023-03-30T12:19:10.011Z,99.99
2023-03-30T12:20:10.035Z,99.99
2023-03-30T12:21:10.007Z,99.99
2023-03-30T12:22:09.993Z,99.99
2023-03-30T12:23:12.068Z,99.99
2023-03-30T12:24:10.008Z,99.99
2023-03-30T12:25:09.968Z,99.99
2023-03-30T12:26:09.972Z,99.99
2023-03-30T12:27:11.570Z,99.99
2023-03-30T12:28:09.962Z,99.99
2023-03-30T12:30:10.228Z,99.99
2023-03-30T12:31:09.962Z,99.99
2023-03-30T12:32:09.977Z,99.99
2023-03-30T12:33:10.011Z,99.99
2023-03-30T12:34:09.927Z,99.99
2023-03-30T12:35:09.935Z,99.99
2023-03-30T12:36:09.969Z,99.99
2023-03-30T12:37:09.938Z,99.99
2023-03-30T12:38:09.972Z,99.99
2023-03-30T12:39:09.912Z,99.99
2023-03-30T12:40:09.929Z,99.99
2023-03-30T12:41:09.898Z,99.99
2023-03-30T12:42:09.907Z,99.99
2023-03-30T12:43:09.900Z,99.99
2023-03-30T12:44:09.890Z,99.99
2023-03-30T12:45:10.926Z,99.99
2023-03-30T12:46:09.914Z,99.99
2023-03-30T12:47:12.134Z,99.99
2023-03-30T12:48:09.946Z,99.99
2023-03-30T12:49:09.876Z,99.99
2023-03-30T12:50:09.871Z,99.99
2023-03-30T12:51:09.859Z,99.99
2023-03-30T12:52:09.920Z,99.99
2023-03-30T12:53:09.844Z,99.99